sensor_id;sensor_type;location;lat;lon;timestamp;P1;durP1;ratioP1;P2;durP2;ratioP2
37309;SDS011;23195;47.744;7.358;2023-09-30T00:01:43;6.43;;;2.73;;
37309;SDS011;23195;47.744;7.358;2023-09-30T00:04:09;7.70;;;3.10;;
37309;SDS011;23195;47.744;7.358;2023-09-30T00:06:35;7.23;;;2.73;;
37309;SDS011;23195;47.744;7.358;2023-09-30T00:09:01;8.37;;;3.00;;
37309;SDS011;23195;47.744;7.358;2023-09-30T00:11:28;7.03;;;3.10;;
37309;SDS011;23195;47.744;7.358;2023-09-30T00:13:53;7.50;;;3.17;;
37309;SDS011;23195;47.744;7.358;2023-09-30T00:16:19;8.67;;;3.10;;
37309;SDS011;23195;47.744;7.358;2023-09-30T00:18:45;8.73;;;3.00;;
37309;SDS011;23195;47.744;7.358;2023-09-30T00:21:14;6.83;;;2.70;;
37309;SDS011;23195;47.744;7.358;2023-09-30T00:23:40;7.57;;;3.23;;
37309;SDS011;23195;47.744;7.358;2023-09-30T00:26:06;7.30;;;2.90;;
37309;SDS011;23195;47.744;7.358;2023-09-30T00:28:31;6.40;;;2.60;;
37309;SDS011;23195;47.744;7.358;2023-09-30T00:30:57;11.03;;;3.07;;
37309;SDS011;23195;47.744;7.358;2023-09-30T00:33:23;9.67;;;2.87;;
37309;SDS011;23195;47.744;7.358;2023-09-30T00:35:50;7.87;;;2.60;;
37309;SDS011;23195;47.744;7.358;2023-09-30T00:38:16;6.67;;;2.60;;
37309;SDS011;23195;47.744;7.358;2023-09-30T00:40:48;7.60;;;3.23;;
37309;SDS011;23195;47.744;7.358;2023-09-30T00:43:18;7.23;;;2.60;;
37309;SDS011;23195;47.744;7.358;2023-09-30T00:45:44;6.57;;;2.70;;
37309;SDS011;23195;47.744;7.358;2023-09-30T00:48:10;6.47;;;2.53;;
37309;SDS011;23195;47.744;7.358;2023-09-30T00:50:36;6.07;;;2.67;;
37309;SDS011;23195;47.744;7.358;2023-09-30T00:53:03;6.53;;;2.37;;
37309;SDS011;23195;47.744;7.358;2023-09-30T00:55:29;6.77;;;2.70;;
37309;SDS011;23195;47.744;7.358;2023-09-30T00:57:56;9.47;;;3.00;;
37309;SDS011;23195;47.744;7.358;2023-09-30T01:00:22;7.20;;;2.80;;
37309;SDS011;23195;47.744;7.358;2023-09-30T01:02:50;5.10;;;2.30;;
37309;SDS011;23195;47.744;7.358;2023-09-30T01:05:18;7.13;;;2.40;;
37309;SDS011;23195;47.744;7.358;2023-09-30T01:07:44;8.80;;;2.97;;
37309;SDS011;23195;47.744;7.358;2023-09-30T01:10:10;6.80;;;2.73;;
37309;SDS011;23195;47.744;7.358;2023-09-30T01:12:36;7.80;;;2.93;;
37309;SDS011;23195;47.744;7.358;2023-09-30T01:15:02;6.77;;;2.13;;
37309;SDS011;23195;47.744;7.358;2023-09-30T01:17:30;5.10;;;2.47;;
37309;SDS011;23195;47.744;7.358;2023-09-30T01:20:00;6.10;;;2.30;;
37309;SDS011;23195;47.744;7.358;2023-09-30T01:22:29;6.80;;;2.93;;
37309;SDS011;23195;47.744;7.358;2023-09-30T01:24:55;7.00;;;2.90;;
37309;SDS011;23195;47.744;7.358;2023-09-30T01:27:21;8.87;;;2.43;;
37309;SDS011;23195;47.744;7.358;2023-09-30T01:29:50;6.33;;;2.60;;
37309;SDS011;23195;47.744;7.358;2023-09-30T01:32:16;7.53;;;3.00;;
37309;SDS011;23195;47.744;7.358;2023-09-30T01:34:42;6.17;;;2.80;;
37309;SDS011;23195;47.744;7.358;2023-09-30T01:37:07;7.50;;;2.77;;
37309;SDS011;23195;47.744;7.358;2023-09-30T01:39:33;7.33;;;3.23;;
37309;SDS011;23195;47.744;7.358;2023-09-30T01:41:59;4.67;;;2.40;;
37309;SDS011;23195;47.744;7.358;2023-09-30T01:44:25;8.73;;;2.67;;
37309;SDS011;23195;47.744;7.358;2023-09-30T01:46:51;7.60;;;2.60;;
37309;SDS011;23195;47.744;7.358;2023-09-30T01:49:17;7.10;;;2.70;;
37309;SDS011;23195;47.744;7.358;2023-09-30T01:51:49;9.03;;;2.90;;
37309;SDS011;23195;47.744;7.358;2023-09-30T01:54:14;5.60;;;2.40;;
37309;SDS011;23195;47.744;7.358;2023-09-30T01:56:40;5.80;;;2.60;;
37309;SDS011;23195;47.744;7.358;2023-09-30T01:59:06;6.13;;;2.50;;
37309;SDS011;23195;47.744;7.358;2023-09-30T02:01:32;6.37;;;2.63;;
37309;SDS011;23195;47.744;7.358;2023-09-30T02:03:57;6.07;;;2.50;;
37309;SDS011;23195;47.744;7.358;2023-09-30T02:06:23;5.83;;;3.00;;
37309;SDS011;23195;47.744;7.358;2023-09-30T02:08:49;7.53;;;2.60;;
37309;SDS011;23195;47.744;7.358;2023-09-30T02:11:15;6.20;;;2.23;;
37309;SDS011;23195;47.744;7.358;2023-09-30T02:13:41;7.53;;;2.80;;
37309;SDS011;23195;47.744;7.358;2023-09-30T02:16:13;7.33;;;2.50;;
37309;SDS011;23195;47.744;7.358;2023-09-30T02:18:39;6.83;;;2.80;;
37309;SDS011;23195;47.744;7.358;2023-09-30T02:21:07;5.27;;;2.33;;
37309;SDS011;23195;47.744;7.358;2023-09-30T02:23:34;7.20;;;2.77;;
37309;SDS011;23195;47.744;7.358;2023-09-30T02:26:01;6.47;;;2.43;;
37309;SDS011;23195;47.744;7.358;2023-09-30T02:28:28;6.47;;;3.10;;
37309;SDS011;23195;47.744;7.358;2023-09-30T02:30:55;5.37;;;2.27;;
37309;SDS011;23195;47.744;7.358;2023-09-30T02:33:20;6.67;;;2.70;;
37309;SDS011;23195;47.744;7.358;2023-09-30T02:35:46;9.00;;;3.30;;
37309;SDS011;23195;47.744;7.358;2023-09-30T02:38:12;7.07;;;3.10;;
37309;SDS011;23195;47.744;7.358;2023-09-30T02:40:41;6.30;;;2.53;;
37309;SDS011;23195;47.744;7.358;2023-09-30T02:43:11;6.93;;;2.50;;
37309;SDS011;23195;47.744;7.358;2023-09-30T02:45:38;7.53;;;2.80;;
37309;SDS011;23195;47.744;7.358;2023-09-30T02:48:04;6.57;;;2.87;;
37309;SDS011;23195;47.744;7.358;2023-09-30T02:50:31;6.37;;;2.70;;
37309;SDS011;23195;47.744;7.358;2023-09-30T02:52:57;7.60;;;3.00;;
37309;SDS011;23195;47.744;7.358;2023-09-30T02:55:23;7.63;;;2.90;;
37309;SDS011;23195;47.744;7.358;2023-09-30T02:57:49;6.00;;;2.50;;
37309;SDS011;23195;47.744;7.358;2023-09-30T03:00:17;6.67;;;2.83;;
37309;SDS011;23195;47.744;7.358;2023-09-30T03:02:52;9.00;;;3.30;;
37309;SDS011;23195;47.744;7.358;2023-09-30T03:05:22;8.20;;;2.97;;
37309;SDS011;23195;47.744;7.358;2023-09-30T03:07:55;7.70;;;2.80;;
37309;SDS011;23195;47.744;7.358;2023-09-30T03:10:21;8.90;;;2.97;;
37309;SDS011;23195;47.744;7.358;2023-09-30T03:12:52;6.57;;;2.80;;
37309;SDS011;23195;47.744;7.358;2023-09-30T03:15:18;8.40;;;2.93;;
37309;SDS011;23195;47.744;7.358;2023-09-30T03:17:44;6.80;;;2.70;;
37309;SDS011;23195;47.744;7.358;2023-09-30T03:20:11;6.53;;;2.70;;
37309;SDS011;23195;47.744;7.358;2023-09-30T03:22:42;7.17;;;2.80;;
37309;SDS011;23195;47.744;7.358;2023-09-30T03:25:09;7.03;;;3.03;;
37309;SDS011;23195;47.744;7.358;2023-09-30T03:27:36;7.33;;;2.97;;
37309;SDS011;23195;47.744;7.358;2023-09-30T03:30:06;6.47;;;3.00;;
37309;SDS011;23195;47.744;7.358;2023-09-30T03:32:33;8.53;;;3.00;;
37309;SDS011;23195;47.744;7.358;2023-09-30T03:35:04;8.53;;;2.83;;
37309;SDS011;23195;47.744;7.358;2023-09-30T03:37:33;6.50;;;2.87;;
37309;SDS011;23195;47.744;7.358;2023-09-30T03:39:59;7.03;;;2.73;;
37309;SDS011;23195;47.744;7.358;2023-09-30T03:42:37;10.00;;;3.10;;
37309;SDS011;23195;47.744;7.358;2023-09-30T03:45:04;10.17;;;2.83;;
37309;SDS011;23195;47.744;7.358;2023-09-30T03:47:35;5.27;;;2.43;;
37309;SDS011;23195;47.744;7.358;2023-09-30T03:50:02;7.17;;;2.93;;
37309;SDS011;23195;47.744;7.358;2023-09-30T03:52:28;6.73;;;2.90;;
37309;SDS011;23195;47.744;7.358;2023-09-30T03:54:54;4.70;;;2.80;;
37309;SDS011;23195;47.744;7.358;2023-09-30T03:57:20;7.83;;;3.10;;
37309;SDS011;23195;47.744;7.358;2023-09-30T03:59:46;7.33;;;2.97;;
37309;SDS011;23195;47.744;7.358;2023-09-30T04:02:12;6.97;;;2.90;;
37309;SDS011;23195;47.744;7.358;2023-09-30T04:04:40;7.17;;;3.07;;
37309;SDS011;23195;47.744;7.358;2023-09-30T04:07:06;7.10;;;2.63;;
37309;SDS011;23195;47.744;7.358;2023-09-30T04:09:35;6.10;;;3.07;;
37309;SDS011;23195;47.744;7.358;2023-09-30T04:12:04;11.83;;;3.30;;
37309;SDS011;23195;47.744;7.358;2023-09-30T04:14:30;5.73;;;2.90;;
37309;SDS011;23195;47.744;7.358;2023-09-30T04:16:56;8.57;;;3.43;;
37309;SDS011;23195;47.744;7.358;2023-09-30T04:19:23;6.93;;;2.80;;
37309;SDS011;23195;47.744;7.358;2023-09-30T04:21:48;10.07;;;3.03;;
37309;SDS011;23195;47.744;7.358;2023-09-30T04:24:17;8.53;;;3.23;;
37309;SDS011;23195;47.744;7.358;2023-09-30T04:26:45;8.27;;;2.80;;
37309;SDS011;23195;47.744;7.358;2023-09-30T04:29:11;7.90;;;3.00;;
37309;SDS011;23195;47.744;7.358;2023-09-30T04:31:37;7.10;;;2.87;;
37309;SDS011;23195;47.744;7.358;2023-09-30T04:34:04;9.93;;;3.03;;
37309;SDS011;23195;47.744;7.358;2023-09-30T04:36:33;6.57;;;3.10;;
37309;SDS011;23195;47.744;7.358;2023-09-30T04:39:00;7.07;;;2.70;;
37309;SDS011;23195;47.744;7.358;2023-09-30T04:41:26;7.17;;;3.10;;
37309;SDS011;23195;47.744;7.358;2023-09-30T04:43:52;6.23;;;2.70;;
37309;SDS011;23195;47.744;7.358;2023-09-30T04:46:18;9.57;;;3.47;;
37309;SDS011;23195;47.744;7.358;2023-09-30T04:48:48;6.57;;;3.23;;
37309;SDS011;23195;47.744;7.358;2023-09-30T04:51:17;8.20;;;3.20;;
37309;SDS011;23195;47.744;7.358;2023-09-30T04:53:44;6.80;;;2.93;;
37309;SDS011;23195;47.744;7.358;2023-09-30T04:56:12;7.40;;;3.07;;
37309;SDS011;23195;47.744;7.358;2023-09-30T04:58:38;7.23;;;3.00;;
37309;SDS011;23195;47.744;7.358;2023-09-30T05:01:04;6.57;;;2.90;;
37309;SDS011;23195;47.744;7.358;2023-09-30T05:03:31;7.30;;;3.47;;
37309;SDS011;23195;47.744;7.358;2023-09-30T05:05:56;6.53;;;3.00;;
37309;SDS011;23195;47.744;7.358;2023-09-30T05:08:23;7.43;;;3.10;;
37309;SDS011;23195;47.744;7.358;2023-09-30T05:10:49;6.93;;;3.20;;
37309;SDS011;23195;47.744;7.358;2023-09-30T05:13:15;7.70;;;3.00;;
37309;SDS011;23195;47.744;7.358;2023-09-30T05:15:42;6.67;;;3.10;;
37309;SDS011;23195;47.744;7.358;2023-09-30T05:18:08;7.60;;;3.30;;
37309;SDS011;23195;47.744;7.358;2023-09-30T05:20:34;8.73;;;3.30;;
37309;SDS011;23195;47.744;7.358;2023-09-30T05:23:01;7.47;;;2.80;;
37309;SDS011;23195;47.744;7.358;2023-09-30T05:25:28;6.27;;;3.10;;
37309;SDS011;23195;47.744;7.358;2023-09-30T05:27:54;7.77;;;3.10;;
37309;SDS011;23195;47.744;7.358;2023-09-30T05:30:19;8.20;;;3.27;;
37309;SDS011;23195;47.744;7.358;2023-09-30T05:32:48;6.73;;;3.20;;
37309;SDS011;23195;47.744;7.358;2023-09-30T05:35:17;7.03;;;2.73;;
37309;SDS011;23195;47.744;7.358;2023-09-30T05:37:43;6.60;;;3.23;;
37309;SDS011;23195;47.744;7.358;2023-09-30T05:40:24;10.77;;;3.33;;
37309;SDS011;23195;47.744;7.358;2023-09-30T05:42:52;8.23;;;3.50;;
37309;SDS011;23195;47.744;7.358;2023-09-30T05:45:23;6.07;;;3.00;;
37309;SDS011;23195;47.744;7.358;2023-09-30T05:47:51;9.13;;;3.57;;
37309;SDS011;23195;47.744;7.358;2023-09-30T05:50:20;7.20;;;3.43;;
37309;SDS011;23195;47.744;7.358;2023-09-30T05:52:55;8.40;;;3.20;;
37309;SDS011;23195;47.744;7.358;2023-09-30T05:55:21;6.23;;;3.10;;
37309;SDS011;23195;47.744;7.358;2023-09-30T05:57:51;7.97;;;3.17;;
37309;SDS011;23195;47.744;7.358;2023-09-30T06:00:19;8.13;;;3.20;;
37309;SDS011;23195;47.744;7.358;2023-09-30T06:02:47;7.53;;;3.33;;
37309;SDS011;23195;47.744;7.358;2023-09-30T06:05:23;6.87;;;2.73;;
37309;SDS011;23195;47.744;7.358;2023-09-30T06:07:53;10.73;;;4.10;;
37309;SDS011;23195;47.744;7.358;2023-09-30T06:10:23;9.30;;;3.83;;
37309;SDS011;23195;47.744;7.358;2023-09-30T06:12:52;10.43;;;4.90;;
37309;SDS011;23195;47.744;7.358;2023-09-30T06:15:22;9.97;;;3.63;;
37309;SDS011;23195;47.744;7.358;2023-09-30T06:17:53;9.33;;;4.57;;
37309;SDS011;23195;47.744;7.358;2023-09-30T06:20:33;13.40;;;4.67;;
37309;SDS011;23195;47.744;7.358;2023-09-30T06:22:59;11.50;;;4.10;;
37309;SDS011;23195;47.744;7.358;2023-09-30T06:25:28;10.27;;;4.37;;
37309;SDS011;23195;47.744;7.358;2023-09-30T06:28:01;8.83;;;4.10;;
37309;SDS011;23195;47.744;7.358;2023-09-30T06:30:28;9.47;;;4.63;;
37309;SDS011;23195;47.744;7.358;2023-09-30T06:32:59;11.07;;;4.80;;
37309;SDS011;23195;47.744;7.358;2023-09-30T06:35:26;11.20;;;4.57;;
37309;SDS011;23195;47.744;7.358;2023-09-30T06:38:02;7.57;;;4.03;;
37309;SDS011;23195;47.744;7.358;2023-09-30T06:40:28;8.37;;;4.30;;
37309;SDS011;23195;47.744;7.358;2023-09-30T06:42:54;11.00;;;4.20;;
37309;SDS011;23195;47.744;7.358;2023-09-30T06:45:22;14.43;;;5.17;;
37309;SDS011;23195;47.744;7.358;2023-09-30T06:47:48;10.83;;;4.13;;
37309;SDS011;23195;47.744;7.358;2023-09-30T06:50:14;10.00;;;4.23;;
37309;SDS011;23195;47.744;7.358;2023-09-30T06:52:43;11.90;;;4.80;;
37309;SDS011;23195;47.744;7.358;2023-09-30T06:55:15;10.97;;;4.40;;
37309;SDS011;23195;47.744;7.358;2023-09-30T06:57:44;8.30;;;4.30;;
37309;SDS011;23195;47.744;7.358;2023-09-30T07:00:11;13.50;;;4.70;;
37309;SDS011;23195;47.744;7.358;2023-09-30T07:02:40;10.77;;;4.47;;
37309;SDS011;23195;47.744;7.358;2023-09-30T07:05:13;7.73;;;4.10;;
37309;SDS011;23195;47.744;7.358;2023-09-30T07:07:39;11.27;;;4.43;;
37309;SDS011;23195;47.744;7.358;2023-09-30T07:10:08;13.50;;;5.23;;
37309;SDS011;23195;47.744;7.358;2023-09-30T07:12:34;12.43;;;5.00;;
37309;SDS011;23195;47.744;7.358;2023-09-30T07:15:04;12.97;;;4.90;;
37309;SDS011;23195;47.744;7.358;2023-09-30T07:17:31;13.80;;;5.30;;
37309;SDS011;23195;47.744;7.358;2023-09-30T07:20:00;12.83;;;5.07;;
37309;SDS011;23195;47.744;7.358;2023-09-30T07:22:27;13.57;;;5.50;;
37309;SDS011;23195;47.744;7.358;2023-09-30T07:24:53;12.20;;;5.37;;
37309;SDS011;23195;47.744;7.358;2023-09-30T07:27:19;14.70;;;4.87;;
37309;SDS011;23195;47.744;7.358;2023-09-30T07:29:45;12.73;;;5.73;;
37309;SDS011;23195;47.744;7.358;2023-09-30T07:32:10;14.23;;;5.43;;
37309;SDS011;23195;47.744;7.358;2023-09-30T07:34:36;15.30;;;5.57;;
37309;SDS011;23195;47.744;7.358;2023-09-30T07:37:02;14.37;;;5.33;;
37309;SDS011;23195;47.744;7.358;2023-09-30T07:39:29;13.77;;;5.50;;
37309;SDS011;23195;47.744;7.358;2023-09-30T07:41:55;17.23;;;5.70;;
37309;SDS011;23195;47.744;7.358;2023-09-30T07:44:41;17.03;;;5.53;;
37309;SDS011;23195;47.744;7.358;2023-09-30T07:47:09;15.20;;;5.80;;
37309;SDS011;23195;47.744;7.358;2023-09-30T07:49:41;11.27;;;5.30;;
37309;SDS011;23195;47.744;7.358;2023-09-30T07:52:10;13.30;;;4.33;;
37309;SDS011;23195;47.744;7.358;2023-09-30T07:54:36;9.47;;;4.07;;
37309;SDS011;23195;47.744;7.358;2023-09-30T07:57:02;10.87;;;4.60;;
37309;SDS011;23195;47.744;7.358;2023-09-30T07:59:31;8.57;;;3.97;;
37309;SDS011;23195;47.744;7.358;2023-09-30T08:02:01;11.47;;;4.77;;
37309;SDS011;23195;47.744;7.358;2023-09-30T08:04:30;9.07;;;4.70;;
37309;SDS011;23195;47.744;7.358;2023-09-30T08:06:58;10.40;;;4.80;;
37309;SDS011;23195;47.744;7.358;2023-09-30T08:09:24;8.67;;;3.67;;
37309;SDS011;23195;47.744;7.358;2023-09-30T08:12:11;8.27;;;3.97;;
37309;SDS011;23195;47.744;7.358;2023-09-30T08:14:39;11.80;;;4.23;;
37309;SDS011;23195;47.744;7.358;2023-09-30T08:17:04;10.33;;;4.30;;
37309;SDS011;23195;47.744;7.358;2023-09-30T08:19:30;10.67;;;4.50;;
37309;SDS011;23195;47.744;7.358;2023-09-30T08:21:56;10.30;;;4.50;;
37309;SDS011;23195;47.744;7.358;2023-09-30T08:24:25;9.03;;;4.50;;
37309;SDS011;23195;47.744;7.358;2023-09-30T08:26:53;10.43;;;4.40;;
37309;SDS011;23195;47.744;7.358;2023-09-30T08:29:27;7.37;;;4.50;;
37309;SDS011;23195;47.744;7.358;2023-09-30T08:31:57;10.17;;;4.30;;
37309;SDS011;23195;47.744;7.358;2023-09-30T08:34:23;11.93;;;4.70;;
37309;SDS011;23195;47.744;7.358;2023-09-30T08:36:51;6.93;;;3.93;;
37309;SDS011;23195;47.744;7.358;2023-09-30T08:39:17;8.13;;;4.10;;
37309;SDS011;23195;47.744;7.358;2023-09-30T08:41:43;9.57;;;4.60;;
37309;SDS011;23195;47.744;7.358;2023-09-30T08:44:10;8.07;;;3.83;;
37309;SDS011;23195;47.744;7.358;2023-09-30T08:46:36;8.67;;;4.17;;
37309;SDS011;23195;47.744;7.358;2023-09-30T08:49:03;13.20;;;4.47;;
37309;SDS011;23195;47.744;7.358;2023-09-30T08:51:31;9.00;;;4.00;;
37309;SDS011;23195;47.744;7.358;2023-09-30T08:53:57;10.00;;;4.13;;
37309;SDS011;23195;47.744;7.358;2023-09-30T08:56:26;12.97;;;4.30;;
37309;SDS011;23195;47.744;7.358;2023-09-30T08:58:57;8.73;;;3.80;;
37309;SDS011;23195;47.744;7.358;2023-09-30T09:01:24;8.23;;;4.20;;
37309;SDS011;23195;47.744;7.358;2023-09-30T09:03:51;10.40;;;4.50;;
37309;SDS011;23195;47.744;7.358;2023-09-30T09:06:36;8.43;;;3.80;;
37309;SDS011;23195;47.744;7.358;2023-09-30T09:11:41;8.40;;;4.00;;
37309;SDS011;23195;47.744;7.358;2023-09-30T09:14:08;8.23;;;3.97;;
37309;SDS011;23195;47.744;7.358;2023-09-30T09:16:34;9.50;;;3.97;;
37309;SDS011;23195;47.744;7.358;2023-09-30T09:19:35;10.63;;;4.43;;
37309;SDS011;23195;47.744;7.358;2023-09-30T09:24:31;6.97;;;3.93;;
37309;SDS011;23195;47.744;7.358;2023-09-30T09:27:11;6.60;;;3.63;;
37309;SDS011;23195;47.744;7.358;2023-09-30T09:29:40;8.70;;;4.10;;
37309;SDS011;23195;47.744;7.358;2023-09-30T09:32:17;10.13;;;3.93;;
37309;SDS011;23195;47.744;7.358;2023-09-30T09:34:43;7.57;;;3.63;;
37309;SDS011;23195;47.744;7.358;2023-09-30T09:37:14;10.00;;;3.93;;
37309;SDS011;23195;47.744;7.358;2023-09-30T09:39:54;9.13;;;4.10;;
37309;SDS011;23195;47.744;7.358;2023-09-30T09:42:27;8.20;;;3.77;;
37309;SDS011;23195;47.744;7.358;2023-09-30T09:44:55;8.13;;;3.40;;
37309;SDS011;23195;47.744;7.358;2023-09-30T09:47:25;6.03;;;3.47;;
37309;SDS011;23195;47.744;7.358;2023-09-30T09:49:52;7.00;;;3.40;;
37309;SDS011;23195;47.744;7.358;2023-09-30T09:52:18;8.70;;;3.63;;
37309;SDS011;23195;47.744;7.358;2023-09-30T09:54:45;6.27;;;3.13;;
37309;SDS011;23195;47.744;7.358;2023-09-30T09:57:12;6.90;;;3.07;;
37309;SDS011;23195;47.744;7.358;2023-09-30T09:59:39;5.93;;;3.10;;
37309;SDS011;23195;47.744;7.358;2023-09-30T10:02:10;7.47;;;2.57;;
37309;SDS011;23195;47.744;7.358;2023-09-30T10:04:45;7.40;;;3.37;;
37309;SDS011;23195;47.744;7.358;2023-09-30T10:07:16;8.13;;;2.97;;
37309;SDS011;23195;47.744;7.358;2023-09-30T10:09:47;7.67;;;3.17;;
37309;SDS011;23195;47.744;7.358;2023-09-30T10:12:17;8.80;;;3.17;;
37309;SDS011;23195;47.744;7.358;2023-09-30T10:14:44;7.20;;;3.13;;
37309;SDS011;23195;47.744;7.358;2023-09-30T10:17:10;10.83;;;3.57;;
37309;SDS011;23195;47.744;7.358;2023-09-30T10:19:36;8.60;;;3.33;;
37309;SDS011;23195;47.744;7.358;2023-09-30T10:22:30;7.23;;;3.67;;
37309;SDS011;23195;47.744;7.358;2023-09-30T10:24:56;6.30;;;3.00;;
37309;SDS011;23195;47.744;7.358;2023-09-30T10:29:56;7.50;;;3.30;;
37309;SDS011;23195;47.744;7.358;2023-09-30T10:33:07;9.53;;;3.77;;
37309;SDS011;23195;47.744;7.358;2023-09-30T10:38:42;8.50;;;3.60;;
37309;SDS011;23195;47.744;7.358;2023-09-30T10:40:52;12.37;;;6.63;;
37309;SDS011;23195;47.744;7.358;2023-09-30T10:43:31;8.17;;;4.60;;
37309;SDS011;23195;47.744;7.358;2023-09-30T10:46:10;7.70;;;3.90;;
37309;SDS011;23195;47.744;7.358;2023-09-30T10:48:53;8.73;;;3.50;;
37309;SDS011;23195;47.744;7.358;2023-09-30T10:51:20;7.90;;;4.07;;
37309;SDS011;23195;47.744;7.358;2023-09-30T10:53:47;8.20;;;3.90;;
37309;SDS011;23195;47.744;7.358;2023-09-30T10:56:20;8.30;;;4.00;;
37309;SDS011;23195;47.744;7.358;2023-09-30T11:01:22;9.50;;;4.37;;
37309;SDS011;23195;47.744;7.358;2023-09-30T11:03:49;7.90;;;3.77;;
37309;SDS011;23195;47.744;7.358;2023-09-30T11:06:23;8.60;;;4.13;;
37309;SDS011;23195;47.744;7.358;2023-09-30T11:08:53;10.10;;;4.17;;
37309;SDS011;23195;47.744;7.358;2023-09-30T11:11:42;7.73;;;3.80;;
37309;SDS011;23195;47.744;7.358;2023-09-30T11:14:17;8.60;;;4.47;;
37309;SDS011;23195;47.744;7.358;2023-09-30T11:16:43;10.90;;;4.27;;
37309;SDS011;23195;47.744;7.358;2023-09-30T11:19:10;9.87;;;4.50;;
37309;SDS011;23195;47.744;7.358;2023-09-30T11:21:41;8.90;;;4.30;;
37309;SDS011;23195;47.744;7.358;2023-09-30T11:24:11;9.17;;;4.13;;
37309;SDS011;23195;47.744;7.358;2023-09-30T11:26:38;8.53;;;4.70;;
37309;SDS011;23195;47.744;7.358;2023-09-30T11:29:07;13.33;;;5.40;;
37309;SDS011;23195;47.744;7.358;2023-09-30T11:31:54;10.43;;;5.00;;
37309;SDS011;23195;47.744;7.358;2023-09-30T11:34:30;9.03;;;4.80;;
37309;SDS011;23195;47.744;7.358;2023-09-30T11:37:00;8.87;;;4.77;;
37309;SDS011;23195;47.744;7.358;2023-09-30T11:39:27;11.40;;;4.70;;
37309;SDS011;23195;47.744;7.358;2023-09-30T11:41:54;10.57;;;4.67;;
37309;SDS011;23195;47.744;7.358;2023-09-30T11:44:22;9.80;;;4.87;;
37309;SDS011;23195;47.744;7.358;2023-09-30T11:52:12;10.80;;;5.33;;
37309;SDS011;23195;47.744;7.358;2023-09-30T11:54:44;11.57;;;5.17;;
37309;SDS011;23195;47.744;7.358;2023-09-30T11:57:16;12.67;;;5.30;;
37309;SDS011;23195;47.744;7.358;2023-09-30T11:59:46;11.70;;;5.33;;
37309;SDS011;23195;47.744;7.358;2023-09-30T12:02:13;12.30;;;5.70;;
37309;SDS011;23195;47.744;7.358;2023-09-30T12:04:42;9.77;;;4.90;;
37309;SDS011;23195;47.744;7.358;2023-09-30T12:07:09;12.50;;;5.90;;
37309;SDS011;23195;47.744;7.358;2023-09-30T12:09:34;10.47;;;5.17;;
37309;SDS011;23195;47.744;7.358;2023-09-30T12:12:02;11.17;;;5.33;;
37309;SDS011;23195;47.744;7.358;2023-09-30T12:14:29;12.40;;;5.10;;
37309;SDS011;23195;47.744;7.358;2023-09-30T12:16:56;8.87;;;5.07;;
37309;SDS011;23195;47.744;7.358;2023-09-30T12:19:22;9.53;;;4.57;;
37309;SDS011;23195;47.744;7.358;2023-09-30T12:21:51;10.97;;;4.90;;
37309;SDS011;23195;47.744;7.358;2023-09-30T12:24:20;11.47;;;5.40;;
37309;SDS011;23195;47.744;7.358;2023-09-30T12:26:46;12.83;;;5.47;;
37309;SDS011;23195;47.744;7.358;2023-09-30T12:29:22;10.63;;;4.97;;
37309;SDS011;23195;47.744;7.358;2023-09-30T12:31:49;10.83;;;5.17;;
37309;SDS011;23195;47.744;7.358;2023-09-30T12:34:16;9.90;;;5.00;;
37309;SDS011;23195;47.744;7.358;2023-09-30T12:36:42;9.07;;;5.30;;
37309;SDS011;23195;47.744;7.358;2023-09-30T12:39:09;11.33;;;5.47;;
37309;SDS011;23195;47.744;7.358;2023-09-30T12:41:40;10.50;;;5.13;;
37309;SDS011;23195;47.744;7.358;2023-09-30T12:44:07;10.23;;;4.70;;
37309;SDS011;23195;47.744;7.358;2023-09-30T12:46:33;9.43;;;5.53;;
37309;SDS011;23195;47.744;7.358;2023-09-30T12:49:01;10.27;;;5.53;;
37309;SDS011;23195;47.744;7.358;2023-09-30T12:51:28;9.70;;;5.37;;
37309;SDS011;23195;47.744;7.358;2023-09-30T12:53:54;11.37;;;5.43;;
37309;SDS011;23195;47.744;7.358;2023-09-30T12:56:20;10.93;;;5.13;;
37309;SDS011;23195;47.744;7.358;2023-09-30T12:58:49;11.57;;;5.57;;
37309;SDS011;23195;47.744;7.358;2023-09-30T13:01:15;13.33;;;5.90;;
37309;SDS011;23195;47.744;7.358;2023-09-30T13:03:46;9.93;;;5.17;;
37309;SDS011;23195;47.744;7.358;2023-09-30T13:06:15;8.77;;;5.07;;
37309;SDS011;23195;47.744;7.358;2023-09-30T13:08:41;10.07;;;5.07;;
37309;SDS011;23195;47.744;7.358;2023-09-30T13:11:07;9.60;;;5.30;;
37309;SDS011;23195;47.744;7.358;2023-09-30T13:13:33;9.83;;;5.03;;
37309;SDS011;23195;47.744;7.358;2023-09-30T13:16:03;12.07;;;6.30;;
37309;SDS011;23195;47.744;7.358;2023-09-30T13:18:35;12.53;;;5.80;;
37309;SDS011;23195;47.744;7.358;2023-09-30T13:21:01;12.77;;;5.90;;
37309;SDS011;23195;47.744;7.358;2023-09-30T13:23:30;11.03;;;5.40;;
37309;SDS011;23195;47.744;7.358;2023-09-30T13:25:56;12.67;;;5.87;;
37309;SDS011;23195;47.744;7.358;2023-09-30T13:28:22;10.83;;;5.90;;
37309;SDS011;23195;47.744;7.358;2023-09-30T13:30:48;13.57;;;6.27;;
37309;SDS011;23195;47.744;7.358;2023-09-30T13:33:14;14.30;;;6.00;;
37309;SDS011;23195;47.744;7.358;2023-09-30T13:35:45;9.87;;;5.97;;
37309;SDS011;23195;47.744;7.358;2023-09-30T13:38:14;11.60;;;5.77;;
37309;SDS011;23195;47.744;7.358;2023-09-30T13:40:42;13.53;;;6.87;;
37309;SDS011;23195;47.744;7.358;2023-09-30T13:43:08;10.53;;;5.87;;
37309;SDS011;23195;47.744;7.358;2023-09-30T13:45:34;11.53;;;6.27;;
37309;SDS011;23195;47.744;7.358;2023-09-30T13:48:03;11.80;;;6.07;;
37309;SDS011;23195;47.744;7.358;2023-09-30T13:50:29;13.73;;;6.87;;
37309;SDS011;23195;47.744;7.358;2023-09-30T13:52:55;13.67;;;6.80;;
37309;SDS011;23195;47.744;7.358;2023-09-30T13:55:22;12.17;;;6.63;;
37309;SDS011;23195;47.744;7.358;2023-09-30T13:57:50;11.70;;;6.03;;
37309;SDS011;23195;47.744;7.358;2023-09-30T14:00:16;13.70;;;6.57;;
37309;SDS011;23195;47.744;7.358;2023-09-30T14:02:42;16.00;;;7.40;;
37309;SDS011;23195;47.744;7.358;2023-09-30T14:05:12;14.13;;;7.23;;
37309;SDS011;23195;47.744;7.358;2023-09-30T14:07:47;13.90;;;7.43;;
37309;SDS011;23195;47.744;7.358;2023-09-30T14:10:13;14.20;;;7.00;;
37309;SDS011;23195;47.744;7.358;2023-09-30T14:12:39;13.93;;;7.07;;
37309;SDS011;23195;47.744;7.358;2023-09-30T14:15:08;14.00;;;7.07;;
37309;SDS011;23195;47.744;7.358;2023-09-30T14:17:35;12.90;;;6.80;;
37309;SDS011;23195;47.744;7.358;2023-09-30T14:20:01;15.53;;;7.60;;
37309;SDS011;23195;47.744;7.358;2023-09-30T14:22:27;14.60;;;7.20;;
37309;SDS011;23195;47.744;7.358;2023-09-30T14:24:53;15.03;;;6.77;;
37309;SDS011;23195;47.744;7.358;2023-09-30T14:27:19;12.70;;;6.77;;
37309;SDS011;23195;47.744;7.358;2023-09-30T14:29:46;13.17;;;6.87;;
37309;SDS011;23195;47.744;7.358;2023-09-30T14:32:12;12.73;;;6.87;;
37309;SDS011;23195;47.744;7.358;2023-09-30T14:34:38;12.97;;;6.37;;
37309;SDS011;23195;47.744;7.358;2023-09-30T14:37:04;13.83;;;7.13;;
37309;SDS011;23195;47.744;7.358;2023-09-30T14:39:30;15.87;;;7.00;;
37309;SDS011;23195;47.744;7.358;2023-09-30T14:41:56;13.27;;;7.00;;
37309;SDS011;23195;47.744;7.358;2023-09-30T14:44:22;14.60;;;7.03;;
37309;SDS011;23195;47.744;7.358;2023-09-30T14:46:49;11.87;;;6.63;;
37309;SDS011;23195;47.744;7.358;2023-09-30T14:49:15;14.90;;;7.00;;
37309;SDS011;23195;47.744;7.358;2023-09-30T14:51:40;14.73;;;7.23;;
37309;SDS011;23195;47.744;7.358;2023-09-30T14:54:09;14.73;;;7.50;;
37309;SDS011;23195;47.744;7.358;2023-09-30T14:56:44;14.63;;;7.60;;
37309;SDS011;23195;47.744;7.358;2023-09-30T14:59:11;14.50;;;7.30;;
37309;SDS011;23195;47.744;7.358;2023-09-30T15:01:39;14.63;;;7.47;;
37309;SDS011;23195;47.744;7.358;2023-09-30T15:04:05;15.27;;;7.20;;
37309;SDS011;23195;47.744;7.358;2023-09-30T15:06:32;14.00;;;6.77;;
37309;SDS011;23195;47.744;7.358;2023-09-30T15:08:59;13.83;;;6.73;;